Time;durP1;ratioP1;P1;durP2;ratioP2;P2;SDS_P1;SDS_P2;PMS_P1;PMS_P2;Temp;Humidity;BMP_temperature;BMP_pressure;BME280_temperature;BME280_humidity;BME280_pressure;Samples;Min_cycle;Max_cycle;Signal;HPM_P1;HPM_P2
2022/06/04 00:01:47;;;;;;;1999.90;999.90;;;;;;;19.25;100.00;69691.38;5055244;28;20221;-58
2022/06/04 00:04:14;;;;;;;1999.90;999.90;;;;;;;19.22;100.00;69687.78;5072957;28;20185;-56
2022/06/04 00:06:40;;;;;;;1999.90;999.90;;;;;;;19.19;100.00;69684.44;5055215;28;20193;-57
2022/06/04 00:09:06;;;;;;;1999.90;999.90;;;;;;;19.16;100.00;69681.31;5055298;28;20189;-59
2022/06/04 00:17:00;;;;;;;1999.90;999.90;;;;;;;19.10;100.00;69673.81;5074647;28;20699;-59
2022/06/04 00:19:26;;;;;;;1999.90;999.90;;;;;;;19.07;100.00;69671.03;5058826;28;20300;-59
2022/06/04 00:21:51;;;;;;;1999.90;999.90;;;;;;;19.05;100.00;69668.63;5058409;28;20188;-59
2022/06/04 00:24:17;;;;;;;1999.90;999.90;;;;;;;19.03;100.00;69665.78;5058528;28;20191;-59
2022/06/04 00:26:42;;;;;;;1999.90;999.90;;;;;;;19.01;100.00;69662.94;5058255;28;20191;-61
2022/06/04 00:29:09;;;;;;;1999.90;999.90;;;;;;;18.98;100.00;69660.13;5058608;28;20185;-59
2022/06/04 00:31:36;;;;;;;1999.90;999.90;;;;;;;18.95;100.00;69656.81;5058271;28;20250;-58
2022/06/04 00:34:03;;;;;;;1999.90;999.90;;;;;;;18.94;100.00;69655.59;5058355;28;20192;-60
2022/06/04 00:36:31;;;;;;;1999.90;999.90;;;;;;;18.92;100.00;69653.91;5058326;28;20184;-59
2022/06/04 00:38:58;;;;;;;1999.90;999.90;;;;;;;18.91;100.00;69652.25;5058298;28;20205;-59
2022/06/04 00:41:36;;;;;;;1999.90;999.90;;;;;;;18.88;100.00;69649.97;5058589;28;20240;-59
2022/06/04 00:44:11;;;;;;;1999.90;999.90;;;;;;;18.85;100.00;69646.25;5058235;28;20189;-60
2022/06/04 00:46:40;;;;;;;1999.90;999.90;;;;;;;18.82;100.00;69642.28;5058174;28;20197;-59
2022/06/04 00:49:10;;;;;;;1999.90;999.90;;;;;;;18.79;100.00;69639.13;5057912;28;20250;-55
2022/06/04 00:51:36;;;;;;;1999.90;999.90;;;;;;;18.76;100.00;69636.13;5057733;28;20667;-57
2022/06/04 00:54:03;;;;;;;1999.90;999.90;;;;;;;18.72;100.00;69632.16;5057810;28;20181;-58
2022/06/04 00:56:43;;;;;;;1999.90;999.90;;;;;;;18.68;100.00;69627.69;5057954;28;20192;-57
2022/06/04 00:59:27;;;;;;;1999.90;999.90;;;;;;;18.64;100.00;69623.25;5057595;28;20219;-58
2022/06/04 01:02:12;;;;;;;1999.90;999.90;;;;;;;18.61;100.00;69619.63;5057869;28;20280;-54
2022/06/04 01:04:56;;;;;;;1999.90;999.90;;;;;;;18.58;100.00;69616.56;5058006;28;20185;-57
2022/06/04 01:07:31;;;;;;;1999.90;999.90;;;;;;;18.55;100.00;69612.97;5057757;28;20169;-57
2022/06/04 01:10:25;;;;;;;1999.90;999.90;;;;;;;18.53;100.00;69610.19;5057912;28;20207;-57
2022/06/04 01:12:53;;;;;;;1999.90;999.90;;;;;;;18.50;100.00;69607.66;5057625;28;20193;-56
2022/06/04 01:15:24;;;;;;;1999.90;999.90;;;;;;;18.48;100.00;69605.16;5057653;28;20195;-55
2022/06/04 01:17:59;;;;;;;1999.90;999.90;;;;;;;18.46;100.00;69602.59;5057922;28;20220;-57
2022/06/04 01:20:36;;;;;;;1999.90;999.90;;;;;;;18.44;100.00;69599.63;5057746;28;20231;-58
2022/06/04 01:23:05;;;;;;;1999.90;999.90;;;;;;;18.41;100.00;69596.69;5057345;28;20193;-68
2022/06/04 01:26:01;;;;;;;1999.90;999.90;;;;;;;18.39;100.00;69594.00;5057719;28;20188;-60
2022/06/04 01:28:29;;;;;;;1999.90;999.90;;;;;;;18.36;100.00;69590.84;5057132;28;20225;-60
2022/06/04 01:31:02;;;;;;;1999.90;999.90;;;;;;;18.33;100.00;69587.75;5057699;28;20247;-61
2022/06/04 01:33:37;;;;;;;1999.90;999.90;;;;;;;18.30;100.00;69584.59;5057796;28;20540;-60
2022/06/04 01:36:21;;;;;;;1999.90;999.90;;;;;;;18.28;100.00;69581.81;5057746;28;20634;-60
2022/06/04 01:39:23;;;;;;;1999.90;999.90;;;;;;;18.24;100.00;69578.25;5057306;28;20188;-60
2022/06/04 01:41:56;;;;;;;1999.90;999.90;;;;;;;18.21;100.00;69574.97;5006627;28;20270;-56
2022/06/04 01:44:35;;;;;;;1999.90;999.90;;;;;;;18.18;100.00;69571.69;5057743;28;20216;-60
2022/06/04 01:47:05;;;;;;;1999.90;999.90;;;;;;;18.15;100.00;69568.34;5057620;28;20185;-61
2022/06/04 01:50:02;;;;;;;1999.90;999.90;;;;;;;18.13;100.00;69566.50;5057009;28;20283;-61
2022/06/04 01:52:32;;;;;;;1999.90;999.90;;;;;;;18.10;100.00;69562.81;5037194;28;20204;-61
2022/06/04 01:55:31;;;;;;;1999.90;999.90;;;;;;;18.07;100.00;69559.75;5057158;28;20696;-60
2022/06/04 01:58:12;;;;;;;1999.90;999.90;;;;;;;18.04;100.00;69557.06;5038701;28;20189;-52
2022/06/04 02:00:43;;;;;;;1999.90;999.90;;;;;;;18.02;100.00;69554.00;5057044;28;20220;-59
2022/06/04 02:03:14;;;;;;;1999.90;999.90;;;;;;;17.99;100.00;69551.66;5056807;28;20627;-62
2022/06/04 02:05:52;;;;;;;1999.90;999.90;;;;;;;17.97;100.00;69548.59;5057037;28;20246;-61
2022/06/04 02:08:28;;;;;;;1999.90;999.90;;;;;;;17.94;100.00;69546.16;5056880;28;20197;-60
2022/06/04 02:11:18;;;;;;;1999.90;999.90;;;;;;;17.92;100.00;69543.66;5057311;28;20244;-59
2022/06/04 02:13:47;;;;;;;1999.90;999.90;;;;;;;17.90;100.00;69541.78;5057261;28;20192;-59
2022/06/04 02:16:21;;;;;;;1999.90;999.90;;;;;;;17.87;100.00;69538.44;5056702;28;20243;-57
2022/06/04 02:18:48;;;;;;;1999.90;999.90;;;;;;;17.84;100.00;69535.66;5056386;28;20203;-59
2022/06/04 02:21:15;;;;;;;1999.90;999.90;;;;;;;17.82;100.00;69532.59;5056902;28;20193;-69
2022/06/04 02:23:42;;;;;;;1999.90;999.90;;;;;;;17.79;100.00;69529.19;5056397;28;20584;-69
2022/06/04 02:26:07;;;;;;;1999.90;999.90;;;;;;;17.76;100.00;69526.09;5056620;28;20188;-69
2022/06/04 02:28:33;;;;;;;1999.90;999.90;;;;;;;17.74;100.00;69523.03;5056469;28;20520;-69
2022/06/04 02:31:26;;;;;;;1999.90;999.90;;;;;;;17.71;100.00;69520.41;5056231;28;20219;-69
2022/06/04 02:34:12;;;;;;;1999.90;999.90;;;;;;;17.68;100.00;69517.41;5056099;28;20197;-69
2022/06/04 02:37:19;;;;;;;1999.90;999.90;;;;;;;17.66;100.00;69514.91;5056970;28;20185;-61
2022/06/04 02:39:55;;;;;;;1999.90;999.90;;;;;;;17.64;100.00;69512.41;5022383;28;20284;-60
2022/06/04 02:42:32;;;;;;;1999.90;999.90;;;;;;;17.61;100.00;69509.47;5056413;28;20185;-60
2022/06/04 02:45:09;;;;;;;1999.90;999.90;;;;;;;17.59;100.00;69506.34;5056193;28;20234;-60
2022/06/04 02:47:43;;;;;;;1999.90;999.90;;;;;;;17.55;100.00;69502.38;5056465;28;20180;-59
2022/06/04 02:50:18;;;;;;;1999.90;999.90;;;;;;;17.53;100.00;69499.94;5056391;28;20685;-61
2022/06/04 02:52:46;;;;;;;1999.90;999.90;;;;;;;17.51;100.00;69497.41;5056306;28;20220;-59
2022/06/04 02:55:16;;;;;;;1999.90;999.90;;;;;;;17.48;100.00;69494.97;5055786;28;20189;-60
2022/06/04 02:57:46;;;;;;;1999.90;999.90;;;;;;;17.45;100.00;69491.94;5056376;28;20180;-59
2022/06/04 03:00:15;;;;;;;1999.90;999.90;;;;;;;17.42;100.00;69487.69;5056417;28;20192;-59
2022/06/04 03:02:41;;;;;;;1999.90;999.90;;;;;;;17.39;100.00;69484.16;5055622;28;20254;-60
2022/06/04 03:05:13;;;;;;;1999.90;999.90;;;;;;;17.36;100.00;69481.00;5056245;28;20638;-59
2022/06/04 03:07:41;;;;;;;1999.90;999.90;;;;;;;17.34;100.00;69478.97;5055680;28;20255;-59
2022/06/04 03:10:13;;;;;;;1999.90;999.90;;;;;;;17.32;100.00;69477.13;5055582;28;20230;-59
2022/06/04 03:12:38;;;;;;;1999.90;999.90;;;;;;;17.31;100.00;69475.09;5073482;28;20181;-58
2022/06/04 03:15:04;;;;;;;1999.90;999.90;;;;;;;17.30;100.00;69473.66;5055340;28;20200;-59
2022/06/04 03:17:29;;;;;;;1999.90;999.90;;;;;;;17.29;100.00;69472.25;5055889;28;20209;-60
2022/06/04 03:19:55;;;;;;;1999.90;999.90;;;;;;;17.27;100.00;69470.69;5056030;28;20213;-59
2022/06/04 03:22:21;;;;;;;1999.90;999.90;;;;;;;17.26;100.00;69468.88;5055919;28;20184;-60
2022/06/04 03:24:46;;;;;;;1999.90;999.90;;;;;;;17.25;100.00;69467.97;5055666;28;20187;-59
2022/06/04 03:27:12;;;;;;;1999.90;999.90;;;;;;;17.25;100.00;69467.28;5055449;28;20207;-60
2022/06/04 03:29:37;;;;;;;1999.90;999.90;;;;;;;17.24;100.00;69466.91;5055458;28;20547;-58
2022/06/04 03:32:03;;;;;;;1999.90;999.90;;;;;;;17.24;100.00;69466.63;5055547;28;20211;-58
2022/06/04 03:34:28;;;;;;;1999.90;999.90;;;;;;;17.24;100.00;69466.28;5055256;28;20181;-61
2022/06/04 03:36:53;;;;;;;1999.90;999.90;;;;;;;17.25;100.00;69467.28;5055726;28;20278;-61
2022/06/04 03:39:19;;;;;;;1999.90;999.90;;;;;;;17.26;100.00;69469.00;5055215;28;20276;-62
2022/06/04 03:41:44;;;;;;;1999.90;999.90;;;;;;;17.27;100.00;69470.34;5055138;28;20548;-61
2022/06/04 03:44:09;;;;;;;1999.90;999.90;;;;;;;17.30;100.00;69472.84;5055032;28;20212;-61
2022/06/04 03:46:35;;;;;;;1999.90;999.90;;;;;;;17.31;100.00;69474.78;5055463;28;20690;-61
2022/06/04 03:49:01;;;;;;;1999.90;999.90;;;;;;;17.35;100.00;69478.88;5055208;28;20189;-70
2022/06/04 03:51:27;;;;;;;1999.90;999.90;;;;;;;17.38;100.00;69481.75;5056202;28;20244;-57
2022/06/04 03:53:54;;;;;;;1999.90;999.90;;;;;;;17.41;100.00;69485.44;5058611;28;20250;-55
2022/06/04 03:56:20;;;;;;;1999.90;999.90;;;;;;;17.44;100.00;69489.31;5059260;28;20201;-57
2022/06/04 03:58:45;;;;;;;1999.90;999.90;;;;;;;17.46;100.00;69492.72;5076191;28;20196;-55
2022/06/04 04:01:19;;;;;;;1999.90;999.90;;;;;;;17.49;100.00;69496.38;5076440;28;20193;-57
2022/06/04 04:03:45;;;;;;;1999.90;999.90;;;;;;;17.54;100.00;69502.47;5059061;28;20187;-57
2022/06/04 04:06:23;;;;;;;1999.90;999.90;;;;;;;17.61;100.00;69510.09;5058592;28;20195;-62
2022/06/04 04:08:49;;;;;;;1999.90;999.90;;;;;;;17.67;100.00;69517.66;5058816;28;20177;-60
2022/06/04 04:11:19;;;;;;;1999.90;999.90;;;;;;;17.74;100.00;69525.38;5058556;28;20209;-58
2022/06/04 04:13:45;;;;;;;1999.90;999.90;;;;;;;17.80;100.00;69532.94;5058253;28;20322;-57
2022/06/04 04:16:12;;;;;;;1999.90;999.90;;;;;;;17.85;100.00;69538.13;5059047;28;20208;-58
2022/06/04 04:18:38;;;;;;;1999.90;999.90;;;;;;;17.89;100.00;69542.91;5058826;28;20193;-57
2022/06/04 04:21:13;;;;;;;1999.90;999.90;;;;;;;17.94;100.00;69549.38;5058560;28;20212;-57
2022/06/04 04:23:39;;;;;;;1999.90;999.90;;;;;;;18.02;100.00;69557.44;5058873;28;20190;-57
2022/06/04 04:26:07;;;;;;;1999.90;999.90;;;;;;;18.11;100.00;69567.50;5058796;28;20185;-61
2022/06/04 04:28:33;;;;;;;1999.90;999.90;;;;;;;18.19;100.00;69577.59;5058316;28;20283;-59
2022/06/04 04:30:59;;;;;;;1999.90;999.90;;;;;;;18.29;100.00;69588.06;5058160;28;20296;-59
2022/06/04 04:33:25;;;;;;;1999.90;999.90;;;;;;;18.39;100.00;69600.38;5058073;28;20200;-59
2022/06/04 04:35:50;;;;;;;1999.90;999.90;;;;;;;18.50;100.00;69613.72;5058731;28;20185;-59
2022/06/04 04:38:18;;;;;;;1999.90;999.90;;;;;;;18.59;100.00;69623.47;5058082;28;20197;-59
2022/06/04 04:40:44;;;;;;;1999.90;999.90;;;;;;;18.68;100.00;69633.84;5058416;28;20200;-59
2022/06/04 04:43:09;;;;;;;1999.90;999.90;;;;;;;18.76;100.00;69643.19;5058016;28;20646;-60
2022/06/04 04:45:35;;;;;;;1999.90;999.90;;;;;;;18.84;100.00;69652.81;5058129;28;20223;-69
2022/06/04 04:48:00;;;;;;;1999.90;999.90;;;;;;;18.93;100.00;69663.34;5057911;28;20238;-59
2022/06/04 04:50:29;;;;;;;1999.90;999.90;;;;;;;19.03;100.00;69674.88;5057779;28;20251;-59
2022/06/04 04:52:55;;;;;;;1999.90;999.90;;;;;;;19.13;100.00;69686.31;5058198;28;20196;-59
2022/06/04 04:55:21;;;;;;;1999.90;999.90;;;;;;;19.22;100.00;69696.50;5057906;28;20317;-59
2022/06/04 04:57:46;;;;;;;1999.90;999.90;;;;;;;19.35;100.00;69710.91;5057884;28;20546;-58
2022/06/04 05:00:13;;;;;;;1999.90;999.90;;;;;;;19.48;100.00;69726.00;5058100;28;20204;-59
2022/06/04 05:02:38;;;;;;;1999.90;999.90;;;;;;;19.64;100.00;69743.19;5057253;28;20239;-59
2022/06/04 05:05:05;;;;;;;1999.90;999.90;;;;;;;19.82;100.00;69764.66;5057707;28;20189;-59
2022/06/04 05:07:32;;;;;;;1999.90;999.90;;;;;;;20.00;100.00;69785.25;5057453;28;20197;-59
2022/06/04 05:09:57;;;;;;;1999.90;999.90;;;;;;;20.19;100.00;69807.13;5057761;28;20217;-59
2022/06/04 05:12:23;;;;;;;1999.90;999.90;;;;;;;20.39;100.00;69829.66;5057590;28;20244;-59
2022/06/04 05:14:48;;;;;;;1999.90;999.90;;;;;;;20.60;100.00;69854.41;5057751;28;20189;-59
2022/06/04 05:17:14;;;;;;;1999.90;999.90;;;;;;;20.82;100.00;69879.06;5057617;28;20224;-60
2022/06/04 05:19:39;;;;;;;1999.90;999.90;;;;;;;21.05;100.00;69905.00;5057755;28;20185;-51
2022/06/04 05:22:05;;;;;;;1999.90;999.90;;;;;;;21.28;100.00;69931.00;5057488;28;20181;-59
2022/06/04 05:24:33;;;;;;;1999.90;999.90;;;;;;;21.53;100.00;69959.94;5057964;28;20196;-61
2022/06/04 05:27:00;;;;;;;1999.90;999.90;;;;;;;21.75;100.00;69985.69;5057756;28;20196;-60
2022/06/04 05:29:28;;;;;;;1999.90;999.90;;;;;;;22.00;100.00;70014.03;5074904;28;20212;-61
2022/06/04 05:31:53;;;;;;;1999.90;999.90;;;;;;;22.24;100.00;70041.53;5057358;28;20205;-60
2022/06/04 05:34:20;;;;;;;1999.90;999.90;;;;;;;22.50;100.00;70070.28;5057260;28;20213;-61
2022/06/04 05:36:47;;;;;;;1999.90;999.90;;;;;;;22.73;100.00;70096.78;5057330;28;20200;-60
2022/06/04 05:39:13;;;;;;;1999.90;999.90;;;;;;;22.96;100.00;70123.28;5057269;28;20185;-55
2022/06/04 05:41:40;;;;;;;1999.90;999.90;;;;;;;23.20;100.00;70151.22;5057291;28;20189;-61
2022/06/04 05:44:05;;;;;;;1999.90;999.90;;;;;;;23.43;100.00;70177.00;5057227;28;20193;-61
2022/06/04 05:46:31;;;;;;;1999.90;999.90;;;;;;;23.68;100.00;70205.94;5056996;28;20178;-62
2022/06/04 05:48:57;;;;;;;1999.90;999.90;;;;;;;23.95;100.00;70236.81;5057108;28;20185;-61
2022/06/04 05:51:25;;;;;;;1999.90;999.90;;;;;;;24.19;100.00;70264.63;5057444;28;20201;-61
2022/06/04 05:53:51;;;;;;;1999.90;999.90;;;;;;;24.43;100.00;70291.91;5056895;28;20185;-61
2022/06/04 05:56:23;;;;;;;1999.90;999.90;;;;;;;24.67;100.00;70319.41;5057480;28;20185;-63
2022/06/04 05:58:51;;;;;;;1999.90;999.90;;;;;;;24.92;100.00;70347.81;5057529;28;20185;-62
2022/06/04 06:01:19;;;;;;;1999.90;999.90;;;;;;;25.11;100.00;70369.88;5056924;28;20189;-61
2022/06/04 06:03:45;;;;;;;1999.90;999.90;;;;;;;25.34;100.00;70395.59;5056854;28;20215;-61
2022/06/04 06:06:13;;;;;;;1999.90;999.90;;;;;;;25.56;100.00;70420.13;5057284;28;20185;-60
2022/06/04 06:08:38;;;;;;;1999.90;999.90;;;;;;;25.81;100.00;70448.94;5056768;28;20181;-60
2022/06/04 06:11:13;;;;;;;1999.90;999.90;;;;;;;26.05;100.00;70476.44;5057060;28;20204;-60
2022/06/04 06:13:40;;;;;;;1999.90;999.90;;;;;;;26.26;100.00;70500.94;5056919;28;20208;-61
2022/06/04 06:16:08;;;;;;;1999.90;999.90;;;;;;;26.51;100.00;70529.94;5056497;28;20185;-57
2022/06/04 06:18:34;;;;;;;1999.90;999.90;;;;;;;26.78;100.00;70560.53;5056671;28;20192;-56
2022/06/04 06:21:04;;;;;;;1999.90;999.90;;;;;;;27.08;100.00;70594.03;5074390;28;20181;-55
2022/06/04 06:23:30;;;;;;;1999.90;999.90;;;;;;;27.38;100.00;70628.50;5056697;28;20208;-58
2022/06/04 06:25:56;;;;;;;1999.90;999.90;;;;;;;27.64;100.00;70658.47;5056503;28;20181;-55
2022/06/04 06:28:21;;;;;;;1999.90;999.90;;;;;;;27.86;100.00;70683.16;5056513;28;20196;-57
2022/06/04 06:30:49;;;;;;;1999.90;999.90;;;;;;;28.01;100.00;70700.69;5056426;28;20224;-56
2022/06/04 06:33:14;;;;;;;1999.90;999.90;;;;;;;28.11;100.00;70712.09;5056654;28;20192;-56
2022/06/04 06:35:39;;;;;;;1999.90;999.90;;;;;;;28.16;100.00;70717.03;5056305;28;20181;-59
2022/06/04 06:38:05;;;;;;;1999.90;999.90;;;;;;;28.17;100.00;70719.00;5074174;28;20181;-58
2022/06/04 06:40:31;;;;;;;1999.90;999.90;;;;;;;28.19;100.00;70720.69;5056749;28;20241;-60
2022/06/04 06:42:56;;;;;;;1999.90;999.90;;;;;;;28.17;100.00;70719.06;5056145;28;20188;-59
2022/06/04 06:45:21;;;;;;;1999.90;999.90;;;;;;;28.19;100.00;70721.59;5056081;28;20177;-62
2022/06/04 06:47:47;;;;;;;1999.90;999.90;;;;;;;28.29;100.00;70732.59;5056240;28;20189;-61
2022/06/04 06:50:15;;;;;;;1999.90;999.90;;;;;;;28.40;100.00;70745.28;5056594;28;20239;-62
2022/06/04 06:52:40;;;;;;;1999.90;999.90;;;;;;;28.66;100.00;70774.63;5056205;28;20177;-62
2022/06/04 06:55:06;;;;;;;1999.90;999.90;;;;;;;28.98;85.32;70812.16;5056625;28;20169;-59
2022/06/04 06:57:31;;;;;;;1999.90;999.90;;;;;;;29.26;89.09;70844.44;5055927;28;20181;-62
2022/06/04 06:59:56;;;;;;;1999.90;999.90;;;;;;;29.55;76.44;70877.09;5056005;28;20207;-60
2022/06/04 07:02:22;;;;;;;1999.90;999.90;;;;;;;29.71;87.06;70894.59;5056291;28;20192;-62
2022/06/04 07:04:47;;;;;;;1999.90;999.90;;;;;;;29.77;100.00;70901.78;5055729;28;20234;-53
2022/06/04 07:07:13;;;;;;;1999.90;999.90;;;;;;;29.77;100.00;70901.50;5055842;28;20188;-65
2022/06/04 07:09:41;;;;;;;1999.90;999.90;;;;;;;29.70;100.00;70894.66;5055788;28;20177;-57
2022/06/04 07:12:08;;;;;;;1999.90;999.90;;;;;;;29.65;100.00;70889.03;5055547;28;20204;-57
2022/06/04 07:14:33;;;;;;;1999.90;999.90;;;;;;;29.58;100.00;70879.88;5056210;28;20185;-56
2022/06/04 07:16:59;;;;;;;1999.90;999.90;;;;;;;29.50;100.00;70870.66;5055730;28;20212;-57
2022/06/04 07:19:25;;;;;;;1999.90;999.90;;;;;;;29.36;100.00;70855.13;5073382;28;20192;-57
2022/06/04 07:21:52;;;;;;;1999.90;999.90;;;;;;;29.21;100.00;70837.47;5055804;28;20191;-56
2022/06/04 07:24:18;;;;;;;1999.90;999.90;;;;;;;29.08;100.00;70822.91;5055380;28;20189;-62
2022/06/04 07:26:44;;;;;;;1999.90;999.90;;;;;;;28.96;100.00;70809.16;5058758;28;20273;-61
2022/06/04 07:29:10;;;;;;;1999.90;999.90;;;;;;;28.86;100.00;70797.75;5059333;28;20279;-63
2022/06/04 07:31:36;;;;;;;1999.90;999.90;;;;;;;28.85;100.00;70796.28;5059272;28;20269;-60
2022/06/04 07:34:03;;;;;;;1999.90;999.90;;;;;;;28.97;100.00;70810.19;5059006;28;20208;-60
2022/06/04 07:36:32;;;;;;;1999.90;999.90;;;;;;;29.08;100.00;70822.09;5059266;28;20306;-63
2022/06/04 07:38:58;;;;;;;1999.90;999.90;;;;;;;29.13;100.00;70828.31;5059318;28;20184;-63
2022/06/04 07:41:30;;;;;;;1999.90;999.90;;;;;;;29.24;100.00;70840.56;5058970;28;20250;-62
2022/06/04 07:43:58;;;;;;;1999.90;999.90;;;;;;;29.43;100.00;70862.38;5059443;28;20185;-64
2022/06/04 07:46:27;;;;;;;1999.90;999.90;;;;;;;29.70;99.12;70893.22;5059366;28;20219;-59
2022/06/04 07:48:57;;;;;;;1999.90;999.90;;;;;;;29.99;85.35;70925.84;5058666;28;20293;-61
2022/06/04 07:51:22;;;;;;;1999.90;999.90;;;;;;;30.27;77.20;70957.88;5042016;28;20212;-69
2022/06/04 07:53:48;;;;;;;1999.90;999.90;;;;;;;30.42;83.63;70975.38;5058741;28;20181;-69
2022/06/04 07:56:17;;;;;;;1999.90;999.90;;;;;;;30.46;87.35;70980.25;5058925;28;20276;-70
2022/06/04 07:58:44;;;;;;;1999.90;999.90;;;;;;;30.40;97.38;70973.03;5058642;28;20207;-69
2022/06/04 08:01:14;;;;;;;1999.90;999.90;;;;;;;30.31;100.00;70962.47;5058766;28;20228;-71
2022/06/04 08:03:40;;;;;;;1999.90;999.90;;;;;;;30.18;100.00;70947.63;5058892;28;20173;-70
2022/06/04 08:06:06;;;;;;;1999.90;999.90;;;;;;;30.02;100.00;70929.56;5059197;28;20177;-62
2022/06/04 08:08:34;;;;;;;1999.90;999.90;;;;;;;29.83;100.00;70907.84;5059378;28;20185;-61
2022/06/04 08:11:00;;;;;;;1999.90;999.90;;;;;;;29.64;100.00;70885.63;5059022;28;20197;-60
2022/06/04 08:13:26;;;;;;;1999.90;999.90;;;;;;;29.46;100.00;70864.13;5058589;28;20185;-61
2022/06/04 08:15:57;;;;;;;1999.90;999.90;;;;;;;29.29;100.00;70845.31;5076327;28;20181;-63
2022/06/04 08:18:22;;;;;;;1999.90;999.90;;;;;;;29.13;100.00;70827.91;5058325;28;20213;-61
2022/06/04 08:20:54;;;;;;;1999.90;999.90;;;;;;;28.99;100.00;70811.81;5058437;28;20188;-62
2022/06/04 08:23:20;;;;;;;1999.90;999.90;;;;;;;28.88;100.00;70798.22;5058518;28;20185;-62
2022/06/04 08:25:50;;;;;;;1999.90;999.90;;;;;;;28.76;100.00;70784.97;5058591;28;20713;-66
2022/06/04 08:28:17;;;;;;;1999.90;999.90;;;;;;;28.69;100.00;70776.34;5058440;28;20192;-71
2022/06/04 08:30:44;;;;;;;1999.90;999.90;;;;;;;28.62;100.00;70768.88;5057875;28;20284;-67
2022/06/04 08:33:11;;;;;;;1999.90;999.90;;;;;;;28.57;100.00;70762.66;5058364;28;20181;-66
2022/06/04 08:35:36;;;;;;;1999.90;999.90;;;;;;;28.53;100.00;70758.78;5058110;28;20189;-66
2022/06/04 08:38:01;;;;;;;1999.90;999.90;;;;;;;28.52;100.00;70757.31;5057606;28;20187;-66
2022/06/04 08:40:50;;;;;;;1999.90;999.90;;;;;;;28.53;100.00;70757.41;5058130;28;20189;-66
2022/06/04 08:43:34;;;;;;;1999.90;999.90;;;;;;;28.53;100.00;70757.81;5057941;28;20181;-76
2022/06/04 08:46:02;;;;;;;1999.90;999.90;;;;;;;28.55;100.00;70759.97;5058424;28;20191;-65
2022/06/04 08:48:37;;;;;;;1999.90;999.90;;;;;;;28.58;100.00;70764.22;5058200;28;20181;-65
2022/06/04 08:51:06;;;;;;;1999.90;999.90;;;;;;;28.65;100.00;70771.44;5057879;28;20292;-66
2022/06/04 08:53:31;;;;;;;1999.90;999.90;;;;;;;28.71;100.00;70778.31;5057995;28;20185;-67
2022/06/04 08:59:01;;;;;;;1999.90;999.90;;;;;;;28.89;91.83;70799.06;5076386;28;20215;-65
2022/06/04 09:01:58;;;;;;;1999.90;999.90;;;;;;;28.97;95.16;70808.78;5058137;28;20188;-67
2022/06/04 09:04:45;;;;;;;1999.90;999.90;;;;;;;29.08;96.78;70820.75;5037995;28;20189;-59
2022/06/04 09:07:23;;;;;;;1999.90;999.90;;;;;;;29.18;87.89;70832.63;5057758;28;20207;-59
2022/06/04 09:09:54;;;;;;;1999.90;999.90;;;;;;;29.30;90.85;70846.09;5058145;28;20204;-60
2022/06/04 09:12:55;;;;;;;1999.90;999.90;;;;;;;29.42;88.47;70859.91;5057526;28;20212;-60
2022/06/04 09:15:31;;;;;;;1999.90;999.90;;;;;;;29.53;81.77;70872.84;4997796;28;20211;-60
2022/06/04 09:18:01;;;;;;;1999.90;999.90;;;;;;;29.73;74.19;70894.91;5013735;28;20306;-60
2022/06/04 09:20:46;;;;;;;1999.90;999.90;;;;;;;29.90;73.33;70913.81;4997272;28;20194;-59
2022/06/04 09:23:11;;;;;;;1999.90;999.90;;;;;;;30.06;74.99;70932.72;4997602;28;20202;-60
2022/06/04 09:26:04;;;;;;;1999.90;999.90;;;;;;;30.25;71.97;70955.25;4997671;28;20199;-59
2022/06/04 09:28:37;;;;;;;1999.90;999.90;;;;;;;30.45;64.28;70977.63;4953556;28;20225;-59
2022/06/04 09:31:11;;;;;;;1999.90;999.90;;;;;;;30.66;63.98;71001.38;4997398;28;20222;-59
2022/06/04 09:33:56;;;;;;;1999.90;999.90;;;;;;;30.86;64.31;71024.44;4997240;28;20244;-59
2022/06/04 09:36:28;;;;;;;1999.90;999.90;;;;;;;31.06;61.26;71047.91;5013612;28;20202;-59
2022/06/04 09:38:56;;;;;;;1999.90;999.90;;;;;;;31.32;57.76;71077.13;5003916;28;20191;-60
2022/06/04 09:41:24;;;;;;;1999.90;999.90;;;;;;;31.59;51.52;71107.28;5057670;28;20232;-60
2022/06/04 09:44:19;;;;;;;1999.90;999.90;;;;;;;31.93;47.05;71146.53;5056855;28;20193;-60
2022/06/04 09:46:46;;;;;;;1999.90;999.90;;;;;;;32.25;48.41;71183.25;5036066;28;20205;-60
2022/06/04 09:49:29;;;;;;;1999.90;999.90;;;;;;;32.57;47.19;71219.41;5056892;28;20189;-61
2022/06/04 09:51:56;;;;;;;1999.90;999.90;;;;;;;32.89;44.48;71256.38;5056950;28;20212;-60
2022/06/04 09:54:26;;;;;;;1999.90;999.90;;;;;;;33.23;42.43;71295.38;5057557;28;20189;-61
2022/06/04 09:56:57;;;;;;;1999.90;999.90;;;;;;;33.50;39.61;71326.59;5057669;28;20185;-58
2022/06/04 09:59:30;;;;;;;1999.90;999.90;;;;;;;33.78;40.68;71357.47;5057158;28;20185;-67
2022/06/04 10:02:09;;;;;;;1999.90;999.90;;;;;;;34.02;39.66;71384.72;5056922;28;20213;-68
2022/06/04 10:04:47;;;;;;;1999.90;999.90;;;;;;;34.26;39.93;71411.50;5057193;28;20381;-67
2022/06/04 10:07:16;;;;;;;1999.90;999.90;;;;;;;34.44;38.86;71431.97;5056935;28;20299;-68
2022/06/04 10:09:58;;;;;;;1999.90;999.90;;;;;;;34.65;38.14;71456.09;5056904;28;20197;-67
2022/06/04 10:15:33;;;;;;;1999.90;999.90;;;;;;;34.92;40.01;71486.75;5051177;28;20193;-64
2022/06/04 10:18:21;;;;;;;1999.90;999.90;;;;;;;35.01;40.08;71496.88;5056692;28;20201;-67
2022/06/04 10:21:06;;;;;;;1999.90;999.90;;;;;;;35.14;40.42;71511.63;5008856;28;20217;-68
2022/06/04 10:23:43;;;;;;;1999.90;999.90;;;;;;;35.22;41.63;71520.94;5057181;28;20189;-67
2022/06/04 10:26:23;;;;;;;1999.90;999.90;;;;;;;35.34;41.89;71533.38;5057218;28;20230;-67
2022/06/04 10:29:23;;;;;;;1999.90;999.90;;;;;;;35.47;40.85;71548.03;5056836;28;20185;-67
2022/06/04 10:32:17;;;;;;;1999.90;999.90;;;;;;;35.60;42.83;71563.16;5056421;28;20181;-65
2022/06/04 10:34:58;;;;;;;1999.90;999.90;;;;;;;35.77;42.67;71582.53;5056399;28;20170;-68
2022/06/04 10:37:32;;;;;;;1999.90;999.90;;;;;;;35.89;40.24;71596.34;5056299;28;20196;-63
2022/06/04 10:40:07;;;;;;;1999.90;999.90;;;;;;;36.06;39.06;71615.13;5056671;28;20188;-64
2022/06/04 10:42:47;;;;;;;1999.90;999.90;;;;;;;36.16;36.63;71627.44;5055972;28;20225;-63
2022/06/04 10:45:25;;;;;;;1999.90;999.90;;;;;;;36.24;37.79;71636.22;5056683;28;20189;-65
2022/06/04 10:48:01;;;;;;;1999.90;999.90;;;;;;;36.23;41.12;71634.97;5056233;28;20283;-63
2022/06/04 10:53:55;;;;;;;1999.90;999.90;;;;;;;36.30;41.28;71642.38;5074506;28;20215;-79
2022/06/04 10:56:30;;;;;;;1999.90;999.90;;;;;;;36.31;39.64;71642.13;5056017;28;20191;-82
2022/06/04 10:59:08;;;;;;;1999.90;999.90;;;;;;;36.33;40.42;71645.06;5056791;28;20185;-82
2022/06/04 11:01:43;;;;;;;1999.90;999.90;;;;;;;36.32;39.93;71643.47;5056584;28;20197;-81
2022/06/04 11:04:31;;;;;;;1999.90;999.90;;;;;;;36.34;39.57;71645.81;5056723;28;20223;-81
2022/06/04 11:07:06;;;;;;;1999.90;999.90;;;;;;;36.37;39.91;71648.03;5056239;28;20199;-78
2022/06/04 11:09:38;;;;;;;1999.90;999.90;;;;;;;36.39;38.21;71650.56;5056000;28;20199;-66
2022/06/04 11:12:30;;;;;;;1999.90;999.90;;;;;;;36.38;40.11;71648.97;5056313;28;20193;-59
2022/06/04 11:15:03;;;;;;;1999.90;999.90;;;;;;;36.34;40.73;71644.56;5055740;28;20250;-59
2022/06/04 11:17:48;;;;;;;1999.90;999.90;;;;;;;36.27;39.45;71636.69;5056504;28;20212;-59
2022/06/04 11:20:24;;;;;;;1999.90;999.90;;;;;;;36.30;39.13;71639.25;5056020;28;20185;-61
2022/06/04 11:23:16;;;;;;;1999.90;999.90;;;;;;;36.30;41.76;71639.25;5055684;28;20185;-59